Time;durP1;ratioP1;P1;durP2;ratioP2;P2;SDS_P1;SDS_P2;PMS_P1;PMS_P2;Temp;Humidity;BMP_temperature;BMP_pressure;BME280_temperature;BME280_humidity;BME280_pressure;Samples;Min_cycle;Max_cycle;Signal;HPM_P1;HPM_P2
2024/03/01 00:02:24;;;;;;;43.00;25.02;;;;;;;12.43;100.00;99888.25;5091320;28;20055;-45
2024/03/01 00:04:52;;;;;;;43.38;25.58;;;;;;;12.43;100.00;99888.25;5092029;28;20057;-47
2024/03/01 00:07:22;;;;;;;41.55;25.70;;;;;;;12.46;100.00;99885.38;5091263;28;20040;-46
2024/03/01 00:09:50;;;;;;;42.72;26.20;;;;;;;12.46;100.00;99885.38;5090834;28;20109;-46
2024/03/01 00:12:18;;;;;;;45.42;25.90;;;;;;;12.45;100.00;99878.31;5091044;28;20044;-46
2024/03/01 00:14:47;;;;;;;42.60;25.75;;;;;;;12.46;100.00;99877.34;5090643;28;20560;-47
2024/03/01 00:17:15;;;;;;;43.97;26.25;;;;;;;12.52;100.00;99878.69;5090560;28;20040;-46
2024/03/01 00:19:44;;;;;;;46.40;26.48;;;;;;;12.48;100.00;99888.78;5090236;28;20044;-46
2024/03/01 00:22:17;;;;;;;43.03;25.35;;;;;;;12.22;100.00;99887.16;5090444;28;20088;-46
2024/03/01 00:24:47;;;;;;;45.92;27.02;;;;;;;12.25;100.00;99876.22;5090536;28;20040;-45
2024/03/01 00:27:15;;;;;;;43.75;27.08;;;;;;;12.29;100.00;99880.41;5090459;28;20154;-46
2024/03/01 00:29:43;;;;;;;43.50;24.88;;;;;;;12.38;100.00;99885.06;5090737;28;20070;-45
2024/03/01 00:32:12;;;;;;;43.30;25.88;;;;;;;12.46;100.00;99873.81;5090627;28;20471;-46
2024/03/01 00:34:40;;;;;;;43.42;25.88;;;;;;;12.41;100.00;99882.16;5090820;28;20044;-45
2024/03/01 00:37:08;;;;;;;43.20;25.95;;;;;;;12.34;100.00;99878.22;5090446;28;20040;-45
2024/03/01 00:39:37;;;;;;;44.10;26.85;;;;;;;12.42;100.00;99873.16;5090203;28;20048;-45
2024/03/01 00:42:07;;;;;;;42.60;26.20;;;;;;;12.41;100.00;99871.47;5090574;28;20055;-48
2024/03/01 00:44:35;;;;;;;41.83;26.73;;;;;;;12.36;100.00;99870.97;5090213;28;20048;-46
2024/03/01 00:47:03;;;;;;;41.22;25.83;;;;;;;12.38;100.00;99870.84;5090370;28;20048;-45
2024/03/01 00:49:32;;;;;;;42.78;27.13;;;;;;;12.43;100.00;99866.84;5090185;28;20048;-45
2024/03/01 00:52:00;;;;;;;40.20;25.80;;;;;;;12.40;100.00;99867.09;5090273;28;20052;-46
2024/03/01 00:54:29;;;;;;;46.30;26.42;;;;;;;12.39;100.00;99857.34;5089915;28;20144;-46
2024/03/01 00:56:57;;;;;;;45.90;26.30;;;;;;;12.40;100.00;99859.06;5090107;28;20051;-46
2024/03/01 00:59:27;;;;;;;48.20;25.75;;;;;;;12.43;100.00;99850.81;5090228;28;20089;-45
2024/03/01 01:01:55;;;;;;;44.95;26.95;;;;;;;12.43;100.00;99844.59;5090090;28;20040;-46
2024/03/01 01:04:24;;;;;;;42.00;26.75;;;;;;;12.38;100.00;99852.97;5091366;28;20048;-46
2024/03/01 01:06:52;;;;;;;44.78;26.65;;;;;;;12.36;100.00;99841.56;5093568;28;20156;-46
2024/03/01 01:09:20;;;;;;;41.95;26.15;;;;;;;12.26;100.00;99845.88;5093731;28;20044;-44
2024/03/01 01:11:49;;;;;;;43.78;26.25;;;;;;;12.10;100.00;99835.44;5093760;28;20048;-46
2024/03/01 01:14:18;;;;;;;44.97;25.60;;;;;;;12.12;100.00;99832.66;5093645;28;20048;-45
2024/03/01 01:16:47;;;;;;;41.28;25.48;;;;;;;12.11;100.00;99830.94;5093691;28;20048;-47
2024/03/01 01:19:16;;;;;;;44.85;26.48;;;;;;;11.93;100.00;99823.28;5093165;28;20087;-46
2024/03/01 01:21:44;;;;;;;44.80;25.98;;;;;;;11.80;100.00;99830.50;5093482;28;20113;-49
2024/03/01 01:24:13;;;;;;;45.20;26.65;;;;;;;11.83;100.00;99821.41;5093522;28;20044;-45
2024/03/01 01:26:41;;;;;;;43.90;25.60;;;;;;;11.76;100.00;99815.59;5093736;28;20063;-45
2024/03/01 01:29:10;;;;;;;41.88;26.65;;;;;;;11.92;100.00;99802.88;5093655;28;20068;-45
2024/03/01 01:31:38;;;;;;;42.92;26.23;;;;;;;11.98;100.00;99810.47;5093412;28;20044;-45
2024/03/01 01:34:08;;;;;;;44.58;25.80;;;;;;;11.72;100.00;99809.63;5093064;28;20395;-47
2024/03/01 01:36:36;;;;;;;47.30;28.02;;;;;;;11.84;100.00;99799.91;5093393;28;20044;-46
2024/03/01 01:39:05;;;;;;;42.70;25.75;;;;;;;11.95;100.00;99802.63;5092971;28;20105;-47
2024/03/01 01:41:35;;;;;;;44.95;26.88;;;;;;;11.75;100.00;99795.19;5093010;28;20129;-46
2024/03/01 01:44:03;;;;;;;49.80;26.95;;;;;;;11.90;100.00;99790.59;5093164;28;20044;-45
2024/03/01 01:46:33;;;;;;;44.15;27.00;;;;;;;11.75;100.00;99787.16;5092803;28;20052;-45
2024/03/01 01:49:01;;;;;;;43.13;25.73;;;;;;;11.54;100.00;99783.38;5092970;28;20261;-46
2024/03/01 01:51:31;;;;;;;46.10;26.40;;;;;;;11.68;100.00;99780.59;5093030;28;20114;-47
2024/03/01 01:54:00;;;;;;;44.08;27.05;;;;;;;11.64;100.00;99771.06;5092793;28;20147;-47
2024/03/01 01:56:30;;;;;;;46.13;26.30;;;;;;;11.80;100.00;99771.72;5092910;28;20036;-49
2024/03/01 01:58:59;;;;;;;48.35;27.13;;;;;;;11.78;100.00;99772.75;5092595;28;20518;-46
2024/03/01 02:01:28;;;;;;;43.03;26.17;;;;;;;11.86;100.00;99767.72;5092616;28;20067;-47
2024/03/01 02:03:57;;;;;;;44.88;25.75;;;;;;;11.83;100.00;99768.81;5092395;28;20052;-47
2024/03/01 02:06:26;;;;;;;43.65;26.95;;;;;;;11.88;100.00;99777.34;5092592;28;20036;-46
2024/03/01 02:08:56;;;;;;;45.40;26.83;;;;;;;11.89;100.00;99772.84;5092610;28;20075;-46
2024/03/01 02:11:25;;;;;;;49.17;26.05;;;;;;;11.88;100.00;99772.00;5092318;28;20047;-46
2024/03/01 02:13:55;;;;;;;47.13;27.80;;;;;;;11.86;100.00;99765.91;5092308;28;20050;-46
2024/03/01 02:16:24;;;;;;;43.03;26.90;;;;;;;11.92;100.00;99770.81;5092218;28;20062;-45
2024/03/01 02:18:52;;;;;;;44.92;27.77;;;;;;;11.93;100.00;99769.84;5092079;28;20046;-46
2024/03/01 02:21:27;;;;;;;44.80;27.63;;;;;;;11.92;100.00;99768.13;5092006;28;20135;-44
2024/03/01 02:23:57;;;;;;;45.65;27.85;;;;;;;11.87;100.00;99772.97;5092424;28;20052;-46
2024/03/01 02:26:26;;;;;;;53.03;28.83;;;;;;;11.75;100.00;99763.13;5091948;28;20072;-47
2024/03/01 02:28:54;;;;;;;44.28;26.95;;;;;;;11.69;100.00;99766.25;5092209;28;20400;-46
2024/03/01 02:31:22;;;;;;;51.15;29.13;;;;;;;11.93;100.00;99763.63;5092044;28;20090;-46
2024/03/01 02:33:51;;;;;;;45.65;26.77;;;;;;;11.98;100.00;99765.03;5092350;28;20440;-46
2024/03/01 02:36:20;;;;;;;45.75;27.17;;;;;;;12.07;100.00;99755.47;5091807;28;20515;-47
2024/03/01 02:38:48;;;;;;;44.33;26.77;;;;;;;12.00;100.00;99760.41;5091655;28;20089;-47
2024/03/01 02:41:18;;;;;;;44.63;26.67;;;;;;;12.01;100.00;99766.59;5092100;28;20048;-45
2024/03/01 02:43:46;;;;;;;44.00;26.67;;;;;;;12.10;100.00;99757.91;5091609;28;20450;-47
2024/03/01 02:46:15;;;;;;;43.10;25.42;;;;;;;12.14;100.00;99766.53;5091771;28;20109;-47
2024/03/01 02:48:43;;;;;;;45.75;27.00;;;;;;;11.97;100.00;99768.66;5091731;28;20048;-46
2024/03/01 02:51:12;;;;;;;47.67;26.50;;;;;;;12.02;100.00;99761.13;5091782;28;20052;-45
2024/03/01 02:53:40;;;;;;;45.25;27.25;;;;;;;12.03;100.00;99765.50;5091609;28;20084;-45
2024/03/01 02:56:08;;;;;;;41.80;25.55;;;;;;;12.19;100.00;99764.38;5051251;28;20128;-45
2024/03/01 02:58:37;;;;;;;46.10;27.00;;;;;;;12.20;100.00;99764.28;5051467;28;20045;-47
2024/03/01 03:01:05;;;;;;;44.55;25.85;;;;;;;12.24;100.00;99756.88;5051289;28;20102;-46
2024/03/01 03:03:34;;;;;;;44.20;26.05;;;;;;;12.25;100.00;99750.53;5051228;28;20063;-46
2024/03/01 03:06:03;;;;;;;43.75;25.90;;;;;;;12.14;100.00;99753.16;5051071;28;20077;-47
2024/03/01 03:08:31;;;;;;;43.90;26.52;;;;;;;11.94;100.00;99734.13;5051350;28;20494;-45
2024/03/01 03:10:59;;;;;;;40.20;25.50;;;;;;;11.90;100.00;99738.00;5051048;28;20056;-46
2024/03/01 03:13:28;;;;;;;44.53;25.70;;;;;;;11.88;100.00;99731.06;5051231;28;20049;-46
2024/03/01 03:15:57;;;;;;;39.45;24.48;;;;;;;11.94;100.00;99728.78;5051167;28;20106;-45
2024/03/01 03:18:25;;;;;;;42.65;25.70;;;;;;;11.88;100.00;99718.56;5050875;28;20145;-45
2024/03/01 03:20:54;;;;;;;43.60;26.20;;;;;;;11.81;100.00;99722.63;5050813;28;20049;-45
2024/03/01 03:23:22;;;;;;;47.78;25.45;;;;;;;11.92;100.00;99725.38;5051498;28;20045;-46
2024/03/01 03:25:51;;;;;;;43.15;25.25;;;;;;;11.79;100.00;99713.84;5050997;28;20120;-45
2024/03/01 03:28:21;;;;;;;42.90;27.00;;;;;;;11.82;100.00;99718.16;5050923;28;20518;-46
2024/03/01 03:30:50;;;;;;;46.53;27.08;;;;;;;11.97;100.00;99712.53;5051108;28;20045;-45
2024/03/01 03:33:20;;;;;;;44.53;25.52;;;;;;;11.97;100.00;99711.69;5051800;28;20048;-51
2024/03/01 03:35:48;;;;;;;45.03;26.55;;;;;;;11.81;100.00;99719.97;5051525;28;20049;-46
2024/03/01 03:38:17;;;;;;;40.67;26.40;;;;;;;11.78;100.00;99705.97;5051659;28;20049;-46
2024/03/01 03:40:45;;;;;;;42.75;26.13;;;;;;;11.61;100.00;99717.88;5050837;28;20087;-44
2024/03/01 03:43:14;;;;;;;43.17;26.35;;;;;;;11.63;100.00;99707.94;5050811;28;20041;-45
2024/03/01 03:45:42;;;;;;;42.47;26.50;;;;;;;11.74;100.00;99716.00;5050492;28;20123;-45
2024/03/01 03:48:10;;;;;;;44.72;26.30;;;;;;;11.91;100.00;99731.69;5050840;28;20088;-46
2024/03/01 03:50:40;;;;;;;40.50;25.77;;;;;;;11.69;100.00;99712.84;5050605;28;20057;-47
2024/03/01 03:53:08;;;;;;;40.53;25.50;;;;;;;11.70;100.00;99714.53;5050572;28;20072;-45
2024/03/01 03:55:37;;;;;;;45.33;26.40;;;;;;;11.72;100.00;99728.63;5082720;28;20048;-48
2024/03/01 03:58:05;;;;;;;45.53;25.85;;;;;;;11.68;100.00;99711.97;5090639;28;20522;-45
2024/03/01 04:00:33;;;;;;;49.65;26.50;;;;;;;11.81;100.00;99714.63;5090277;28;20507;-46
2024/03/01 04:03:02;;;;;;;43.72;25.83;;;;;;;11.93;100.00;99721.72;5090847;28;20044;-46
2024/03/01 04:05:30;;;;;;;42.15;25.52;;;;;;;11.78;100.00;99714.81;5090436;28;20048;-45
2024/03/01 04:08:00;;;;;;;43.75;25.40;;;;;;;11.82;100.00;99723.50;5090705;28;20051;-46
2024/03/01 04:10:29;;;;;;;41.67;24.55;;;;;;;11.87;100.00;99722.19;5090444;28;20047;-46
2024/03/01 04:12:58;;;;;;;46.03;25.70;;;;;;;11.89;100.00;99722.94;5090318;28;20546;-44
2024/03/01 04:15:26;;;;;;;42.53;25.55;;;;;;;11.83;100.00;99709.16;5090638;28;20048;-46
2024/03/01 04:17:54;;;;;;;41.55;24.42;;;;;;;11.94;100.00;99727.91;5090610;28;20355;-47
2024/03/01 04:20:23;;;;;;;43.78;25.63;;;;;;;11.98;100.00;99718.72;5090707;28;20048;-45
2024/03/01 04:22:51;;;;;;;37.35;24.45;;;;;;;11.80;100.00;99720.94;5090224;28;20139;-45
2024/03/01 04:25:22;;;;;;;37.97;24.05;;;;;;;11.82;100.00;99719.00;5090262;28;20052;-45
2024/03/01 04:27:51;;;;;;;38.88;24.70;;;;;;;11.74;100.00;99710.66;5090257;28;20457;-45
2024/03/01 04:30:19;;;;;;;45.33;25.55;;;;;;;11.59;100.00;99703.78;5090419;28;20076;-45
2024/03/01 04:32:47;;;;;;;43.10;25.00;;;;;;;11.24;100.00;99707.16;5090336;28;20119;-47
2024/03/01 04:35:16;;;;;;;44.33;25.63;;;;;;;11.51;100.00;99706.16;5090217;28;20070;-45
2024/03/01 04:37:44;;;;;;;42.08;25.10;;;;;;;11.72;100.00;99712.59;5090293;28;20085;-47
2024/03/01 04:40:13;;;;;;;43.70;25.08;;;;;;;11.79;100.00;99697.81;5093084;28;20048;-52
2024/03/01 04:42:44;;;;;;;42.55;25.10;;;;;;;11.87;100.00;99705.28;5094170;28;20557;-47
2024/03/01 04:45:12;;;;;;;41.42;24.83;;;;;;;11.95;100.00;99706.41;5094373;28;20055;-46
2024/03/01 04:47:42;;;;;;;44.78;25.42;;;;;;;11.91;100.00;99702.28;5094230;28;20425;-46
2024/03/01 04:50:11;;;;;;;42.00;25.33;;;;;;;11.93;100.00;99711.03;5094105;28;20072;-46
2024/03/01 04:52:39;;;;;;;42.63;24.40;;;;;;;11.85;100.00;99708.06;5093810;28;20072;-47
2024/03/01 04:55:09;;;;;;;42.20;24.95;;;;;;;11.86;100.00;99701.75;5093561;28;20051;-45
2024/03/01 04:57:37;;;;;;;41.47;24.52;;;;;;;11.83;100.00;99701.16;5093958;28;20089;-46
2024/03/01 05:00:12;;;;;;;45.45;25.85;;;;;;;12.00;100.00;99698.94;5094064;28;20128;-47
2024/03/01 05:02:41;;;;;;;43.80;24.55;;;;;;;12.12;100.00;99696.28;5093880;28;20047;-46
2024/03/01 05:05:09;;;;;;;41.95;25.02;;;;;;;12.06;100.00;99702.09;5093773;28;20138;-47
2024/03/01 05:07:38;;;;;;;42.35;24.95;;;;;;;11.92;100.00;99703.13;5093926;28;20465;-45
2024/03/01 05:10:09;;;;;;;42.67;25.27;;;;;;;11.83;100.00;99696.66;5093821;28;20048;-45
2024/03/01 05:12:39;;;;;;;44.30;26.15;;;;;;;11.93;100.00;99699.50;5094137;28;20129;-45
2024/03/01 05:15:12;;;;;;;40.83;24.60;;;;;;;12.00;100.00;99700.75;5093730;28;20052;-46
2024/03/01 05:17:43;;;;;;;40.37;25.17;;;;;;;12.09;100.00;99699.22;5093548;28;20040;-47
2024/03/01 05:20:13;;;;;;;45.15;24.20;;;;;;;11.82;100.00;99710.13;5093442;28;20052;-43
2024/03/01 05:22:43;;;;;;;40.13;23.70;;;;;;;11.79;100.00;99702.31;5093654;28;20052;-45
2024/03/01 05:25:18;;;;;;;39.97;24.35;;;;;;;11.71;100.00;99701.06;5093411;28;20044;-47
2024/03/01 05:27:49;;;;;;;41.67;24.50;;;;;;;11.64;100.00;99694.44;5093224;28;20054;-46
2024/03/01 05:30:20;;;;;;;43.45;25.30;;;;;;;11.68;100.00;99708.47;5093042;28;20606;-48
2024/03/01 05:33:09;;;;;;;44.92;24.70;;;;;;;11.83;100.00;99710.00;5093445;28;20135;-45
2024/03/01 05:35:38;;;;;;;42.95;24.17;;;;;;;11.94;100.00;99710.06;5093318;28;20048;-45
2024/03/01 05:38:06;;;;;;;43.17;24.55;;;;;;;12.01;100.00;99713.16;5093255;28;20045;-44
2024/03/01 05:40:37;;;;;;;41.50;24.63;;;;;;;11.72;100.00;99712.59;5092768;28;20040;-45
2024/03/01 05:43:18;;;;;;;;;;;;;;;11.81;100.00;99722.63;5093540;28;20040;-45
2024/03/01 05:45:47;;;;;;;40.20;23.73;;;;;;;12.00;100.00;99723.00;5093146;28;20031;-47
2024/03/01 05:48:17;;;;;;;40.60;23.75;;;;;;;12.05;100.00;99725.31;5092984;28;20044;-46
2024/03/01 05:50:46;;;;;;;40.42;23.83;;;;;;;12.09;100.00;99731.28;5092342;28;20040;-46
2024/03/01 05:53:15;;;;;;;37.28;23.08;;;;;;;12.03;100.00;99732.59;5092643;28;20055;-46
2024/03/01 05:55:45;;;;;;;39.83;23.63;;;;;;;12.00;100.00;99736.34;5092466;28;20051;-46
2024/03/01 05:58:14;;;;;;;42.25;23.58;;;;;;;12.13;100.00;99730.94;5092868;28;20060;-45
2024/03/01 06:00:43;;;;;;;39.60;23.27;;;;;;;12.21;100.00;99735.72;5092520;28;20052;-45
2024/03/01 06:03:13;;;;;;;39.15;23.42;;;;;;;12.07;100.00;99731.41;5092453;28;20040;-47
2024/03/01 06:05:41;;;;;;;39.40;23.42;;;;;;;12.09;100.00;99728.63;5091892;28;20568;-46
2024/03/01 06:08:10;;;;;;;41.03;23.35;;;;;;;12.21;100.00;99730.38;5092542;28;20047;-45
2024/03/01 06:10:37;;;;;;;36.22;22.92;;;;;;;12.19;100.00;99729.63;5092905;28;20185;-45
2024/03/01 06:13:06;;;;;;;40.92;23.88;;;;;;;12.21;100.00;99730.38;5092660;28;20500;-47
2024/03/01 06:15:34;;;;;;;36.40;23.30;;;;;;;12.22;100.00;99732.06;5092312;28;20134;-45
2024/03/01 06:18:03;;;;;;;42.65;23.95;;;;;;;12.10;100.00;99716.97;5092274;28;20050;-45
2024/03/01 06:20:33;;;;;;;42.00;23.73;;;;;;;12.10;100.00;99722.31;5092364;28;20045;-45
2024/03/01 06:23:01;;;;;;;45.45;24.65;;;;;;;12.09;100.00;99726.78;5090777;28;20481;-47
2024/03/01 06:25:29;;;;;;;39.72;22.38;;;;;;;12.07;100.00;99727.88;5092306;28;20048;-46
2024/03/01 06:27:58;;;;;;;35.63;22.10;;;;;;;12.09;100.00;99731.28;5091916;28;20437;-46
2024/03/01 06:30:26;;;;;;;39.47;22.13;;;;;;;12.07;100.00;99723.38;5091872;28;20039;-45
2024/03/01 06:32:56;;;;;;;39.67;22.65;;;;;;;11.95;100.00;99717.13;5091712;28;20075;-47
2024/03/01 06:35:24;;;;;;;36.33;21.45;;;;;;;11.90;100.00;99710.44;5091828;28;20544;-47
2024/03/01 06:37:54;;;;;;;40.17;22.25;;;;;;;11.97;100.00;99714.34;5091905;28;20084;-45
2024/03/01 06:40:22;;;;;;;35.47;21.85;;;;;;;11.95;100.00;99714.44;5091967;28;20074;-47
2024/03/01 06:42:50;;;;;;;36.53;21.05;;;;;;;11.90;100.00;99711.28;5091920;28;20409;-47
2024/03/01 06:45:20;;;;;;;39.03;21.45;;;;;;;12.06;100.00;99716.31;5092302;28;20048;-47
2024/03/01 06:47:49;;;;;;;41.63;22.08;;;;;;;12.04;100.00;99712.91;5091694;28;20133;-45
2024/03/01 06:50:17;;;;;;;37.40;21.42;;;;;;;12.07;100.00;99712.69;5091887;28;20052;-44
2024/03/01 06:52:46;;;;;;;36.78;22.10;;;;;;;12.20;100.00;99710.81;5091807;28;20079;-46
2024/03/01 06:55:15;;;;;;;38.95;22.08;;;;;;;12.18;100.00;99711.88;5091778;28;20060;-49
2024/03/01 06:57:44;;;;;;;35.95;21.90;;;;;;;12.17;100.00;99712.88;5091909;28;20059;-46
2024/03/01 07:00:13;;;;;;;35.45;20.83;;;;;;;12.23;100.00;99712.38;5091256;28;20040;-44
2024/03/01 07:02:42;;;;;;;36.83;21.15;;;;;;;12.31;100.00;99704.63;5090826;28;20127;-46
2024/03/01 07:05:10;;;;;;;36.75;19.98;;;;;;;12.22;100.00;99698.16;5091344;28;20044;-45
2024/03/01 07:07:39;;;;;;;31.33;19.95;;;;;;;12.25;100.00;99695.25;5091485;28;20067;-46
2024/03/01 07:10:08;;;;;;;32.33;19.70;;;;;;;12.15;100.00;99690.72;5091599;28;20044;-47
2024/03/01 07:12:38;;;;;;;31.52;19.75;;;;;;;12.18;100.00;99704.72;5091409;28;20140;-47
2024/03/01 07:15:09;;;;;;;31.65;19.27;;;;;;;12.20;100.00;99691.22;5091609;28;20133;-46
2024/03/01 07:17:37;;;;;;;33.92;19.58;;;;;;;12.08;100.00;99694.84;5091318;28;20048;-47
2024/03/01 07:20:07;;;;;;;35.55;19.73;;;;;;;11.97;100.00;99704.50;5091227;28;20094;-46
2024/03/01 07:22:36;;;;;;;32.38;19.90;;;;;;;11.89;100.00;99709.56;5091000;28;20052;-44
2024/03/01 07:25:05;;;;;;;36.00;19.30;;;;;;;12.17;100.00;99707.50;5090731;28;20475;-47
2024/03/01 07:27:35;;;;;;;32.95;20.23;;;;;;;12.15;100.00;99698.72;5090839;28;20044;-46
2024/03/01 07:30:05;;;;;;;32.65;19.60;;;;;;;11.91;100.00;99702.28;5090959;28;20051;-45
2024/03/01 07:32:36;;;;;;;;;;;;;;;11.91;100.00;99702.28;5091273;28;20048;-45
2024/03/01 07:35:06;;;;;;;35.72;20.48;;;;;;;11.74;100.00;99700.81;5090893;28;20279;-45
2024/03/01 07:37:35;;;;;;;38.60;21.45;;;;;;;11.77;100.00;99686.38;5090898;28;20132;-45
2024/03/01 07:40:04;;;;;;;36.05;20.70;;;;;;;11.75;100.00;99694.50;5090622;28;20048;-45
2024/03/01 07:42:33;;;;;;;45.95;22.52;;;;;;;11.76;100.00;99687.34;5090503;28;20048;-46
2024/03/01 07:45:04;;;;;;;34.85;21.88;;;;;;;11.74;100.00;99689.28;5090739;28;20147;-49
2024/03/01 07:47:34;;;;;;;34.97;22.20;;;;;;;11.70;100.00;99679.81;5090577;28;20044;-43
2024/03/01 07:50:03;;;;;;;35.33;22.05;;;;;;;11.72;100.00;99681.38;5090820;28;20048;-45
2024/03/01 07:52:31;;;;;;;41.38;21.92;;;;;;;11.73;100.00;99683.09;5090510;28;20058;-43
2024/03/01 07:55:00;;;;;;;31.58;20.58;;;;;;;11.68;100.00;99674.56;5089966;28;20105;-44
2024/03/01 07:57:28;;;;;;;40.47;21.65;;;;;;;11.61;100.00;99677.81;5090502;28;20079;-46
2024/03/01 07:59:57;;;;;;;40.28;22.90;;;;;;;11.76;100.00;99674.84;5090429;28;20127;-44
2024/03/01 08:02:25;;;;;;;34.47;22.02;;;;;;;11.76;100.00;99676.66;5090133;28;20501;-42
2024/03/01 08:04:55;;;;;;;38.72;22.23;;;;;;;11.76;100.00;99671.31;5089993;28;20132;-44
2024/03/01 08:07:23;;;;;;;34.17;21.13;;;;;;;12.00;100.00;99669.53;5090163;28;20165;-45
2024/03/01 08:09:53;;;;;;;35.85;21.50;;;;;;;11.89;100.00;99669.47;5090035;28;20086;-47
2024/03/01 08:12:21;;;;;;;36.35;21.92;;;;;;;11.80;100.00;99672.84;5090085;28;20052;-45
2024/03/01 08:14:51;;;;;;;38.15;22.27;;;;;;;11.97;100.00;99659.06;5094190;28;20451;-45
2024/03/01 08:17:19;;;;;;;35.83;20.98;;;;;;;12.06;100.00;99667.34;5093502;28;20185;-45
2024/03/01 08:19:50;;;;;;;37.28;21.08;;;;;;;12.16;100.00;99661.22;5086911;28;20052;-44
2024/03/01 08:22:24;;;;;;;35.20;20.33;;;;;;;12.18;100.00;99661.94;5079861;28;20100;-49
2024/03/01 08:25:00;;;;;;;37.40;21.08;;;;;;;12.18;100.00;99655.75;5075328;28;20127;-49
2024/03/01 08:27:32;;;;;;;31.13;19.48;;;;;;;12.07;100.00;99658.38;5072474;28;20053;-48
2024/03/01 08:30:03;;;;;;;34.03;20.05;;;;;;;12.30;100.00;99666.34;5075583;28;20052;-49
2024/03/01 08:33:00;;;;;;;33.88;20.92;;;;;;;12.63;100.00;99675.41;5075159;28;20074;-50
2024/03/01 08:35:30;;;;;;;32.65;20.05;;;;;;;12.58;100.00;99673.09;5073945;28;20132;-46
2024/03/01 08:38:00;;;;;;;31.80;19.98;;;;;;;12.66;100.00;99677.88;5073235;28;20063;-46
2024/03/01 08:40:49;;;;;;;31.13;19.88;;;;;;;12.75;100.00;99677.16;5073275;28;20048;-47
2024/03/01 08:43:18;;;;;;;29.65;19.15;;;;;;;12.58;100.00;99673.09;5073595;28;20110;-45
2024/03/01 08:45:47;;;;;;;30.15;18.73;;;;;;;12.73;100.00;99670.19;5073134;28;20051;-45
2024/03/01 08:48:19;;;;;;;38.67;19.83;;;;;;;12.85;100.00;99666.56;5072900;28;20053;-45
2024/03/01 08:50:49;;;;;;;32.60;18.98;;;;;;;12.75;100.00;99669.13;5072996;28;20041;-46
2024/03/01 08:53:57;;;;;;;33.65;18.92;;;;;;;12.74;100.00;99664.75;5073280;28;20048;-45
2024/03/01 08:56:32;;;;;;;34.47;18.25;;;;;;;12.67;100.00;99658.16;4990701;28;20097;-45
2024/03/01 08:59:02;;;;;;;28.50;17.85;;;;;;;12.66;100.00;99663.63;5062736;28;20157;-44
2024/03/01 09:01:51;;;;;;;36.10;18.35;;;;;;;12.77;100.00;99669.00;5072932;28;20048;-47
2024/03/01 09:04:28;;;;;;;34.80;19.48;;;;;;;12.65;100.00;99667.28;5072935;28;20067;-46
2024/03/01 09:07:10;;;;;;;31.65;19.02;;;;;;;12.65;100.00;99665.47;5072867;28;20397;-46
2024/03/01 09:09:40;;;;;;;31.50;19.02;;;;;;;12.65;100.00;99672.63;5072643;28;20184;-44
2024/03/01 09:12:18;;;;;;;32.38;19.00;;;;;;;12.60;100.00;99660.44;5072434;28;20045;-47
2024/03/01 09:14:46;;;;;;;31.80;19.00;;;;;;;12.66;100.00;99663.63;5072342;28;20469;-44
2024/03/01 09:17:14;;;;;;;29.35;18.17;;;;;;;12.48;100.00;99648.03;5072565;28;20041;-43
2024/03/01 09:19:48;;;;;;;30.50;18.67;;;;;;;12.48;100.00;99652.53;5072619;28;20052;-46
2024/03/01 09:22:17;;;;;;;35.25;19.17;;;;;;;12.58;100.00;99643.66;5072662;28;20075;-45
2024/03/01 09:24:48;;;;;;;29.80;17.92;;;;;;;12.69;100.00;99642.81;5071718;28;20049;-46
2024/03/01 09:27:29;;;;;;;35.75;19.05;;;;;;;12.87;100.00;99633.34;5072658;28;20148;-45
2024/03/01 09:29:58;;;;;;;33.90;17.52;;;;;;;12.98;100.00;99629.81;5072473;28;20044;-43
2024/03/01 09:32:26;;;;;;;27.30;17.55;;;;;;;12.99;100.00;99626.16;5072420;28;20045;-45
2024/03/01 09:34:55;;;;;;;28.83;17.80;;;;;;;13.11;100.00;99629.66;5072229;28;20059;-45
2024/03/01 09:37:23;;;;;;;30.30;17.33;;;;;;;13.11;100.00;99627.00;5072273;28;20533;-48
2024/03/01 09:39:53;;;;;;;29.50;17.20;;;;;;;13.01;100.00;99626.88;5072259;28;20075;-44
2024/03/01 09:42:36;;;;;;;27.90;17.23;;;;;;;13.13;100.00;99617.88;5072184;28;20401;-45
2024/03/01 09:45:31;;;;;;;29.10;17.27;;;;;;;13.22;100.00;99621.69;5071901;28;20045;-45
2024/03/01 09:48:13;;;;;;;27.17;15.50;;;;;;;13.25;100.00;99621.44;5072334;28;20253;-45
2024/03/01 09:50:56;;;;;;;24.55;15.38;;;;;;;13.24;100.00;99616.19;5072210;28;20095;-45
2024/03/01 09:53:38;;;;;;;28.08;14.85;;;;;;;13.26;100.00;99612.41;5072294;28;20056;-45
2024/03/01 09:56:15;;;;;;;24.88;13.82;;;;;;;13.32;100.00;99616.44;5071887;28;20048;-45
2024/03/01 09:58:52;;;;;;;23.70;12.77;;;;;;;13.31;100.00;99609.34;5071572;28;20044;-45
2024/03/01 10:01:30;;;;;;;19.73;11.90;;;;;;;13.38;100.00;99605.19;5086348;28;20040;-44
2024/03/01 10:04:11;;;;;;;20.35;11.80;;;;;;;13.45;100.00;99601.91;5091859;28;20048;-46
2024/03/01 10:07:00;;;;;;;18.55;11.35;;;;;;;13.64;100.00;99606.59;5091356;28;20078;-46
2024/03/01 10:09:51;;;;;;;24.95;12.25;;;;;;;13.63;100.00;99609.41;5091574;28;20099;-44
2024/03/01 10:12:34;;;;;;;24.58;11.50;;;;;;;13.61;100.00;99596.13;5088975;28;20050;-47
2024/03/01 10:15:04;;;;;;;20.08;11.02;;;;;;;13.64;100.00;99601.22;5088963;28;20048;-46
2024/03/01 10:17:48;;;;;;;18.75;11.13;;;;;;;13.70;100.00;99598.03;5091313;28;20043;-47
2024/03/01 10:20:26;;;;;;;19.63;11.57;;;;;;;13.62;100.00;99596.97;5091502;28;20141;-45
2024/03/01 10:23:27;;;;;;;20.08;12.32;;;;;;;13.69;100.00;99600.81;5089659;28;20040;-45
2024/03/01 10:26:04;;;;;;;21.50;11.98;;;;;;;13.81;100.00;99596.28;5089320;28;20151;-46
2024/03/01 10:28:49;;;;;;;19.48;12.80;;;;;;;13.69;100.00;99599.00;5089321;28;20044;-46
2024/03/01 10:31:32;;;;;;;22.65;13.23;;;;;;;13.63;100.00;99598.69;5089745;28;20040;-45
2024/03/01 10:34:06;;;;;;;22.23;12.48;;;;;;;13.66;100.00;99601.94;5090309;28;20476;-45
2024/03/01 10:36:43;;;;;;;22.52;12.48;;;;;;;13.46;100.00;99602.75;5088259;28;20047;-45
2024/03/01 10:39:15;;;;;;;24.83;13.02;;;;;;;13.75;100.00;99598.50;5090951;28;20123;-45
2024/03/01 10:42:05;;;;;;;21.25;12.35;;;;;;;13.81;100.00;99601.66;5091059;28;20048;-45
2024/03/01 10:44:41;;;;;;;24.55;13.52;;;;;;;13.63;100.00;99606.72;5088420;28;20044;-47
2024/03/01 10:47:18;;;;;;;24.48;13.15;;;;;;;13.67;100.00;99595.59;5091406;28;20040;-47
2024/03/01 10:50:00;;;;;;;24.92;13.02;;;;;;;13.89;100.00;99599.16;5090597;28;20044;-47
2024/03/01 10:52:37;;;;;;;24.50;13.48;;;;;;;13.79;100.00;99598.22;5090259;28;20047;-46
2024/03/01 10:55:11;;;;;;;24.80;12.65;;;;;;;13.63;100.00;99594.16;5089157;28;20656;-46
2024/03/01 10:57:50;;;;;;;21.38;12.63;;;;;;;13.77;100.00;99584.13;5089026;28;20135;-47
2024/03/01 11:00:26;;;;;;;24.70;12.98;;;;;;;13.67;100.00;99587.56;5088788;28;20044;-45
2024/03/01 11:03:11;;;;;;;22.85;12.35;;;;;;;13.63;100.00;99586.13;5088443;28;20055;-46
2024/03/01 11:05:45;;;;;;;23.35;12.88;;;;;;;13.63;100.00;99575.41;5088604;28;20051;-45
2024/03/01 11:08:25;;;;;;;21.45;12.13;;;;;;;13.63;100.00;99580.78;5088842;28;20047;-46
2024/03/01 11:11:01;;;;;;;20.48;12.32;;;;;;;13.62;100.00;99573.72;5088380;28;20130;-45
2024/03/01 11:13:33;;;;;;;21.67;12.73;;;;;;;13.71;100.00;99574.78;5090788;28;20063;-46
2024/03/01 11:16:07;;;;;;;21.35;12.55;;;;;;;13.56;100.00;99571.53;5090718;28;20063;-45
2024/03/01 11:18:37;;;;;;;;;;;;;;;13.64;100.00;99558.34;5089084;28;20089;-43
2024/03/01 11:21:10;;;;;;;20.45;11.93;;;;;;;13.63;100.00;99567.38;5090583;28;19927;-46
2024/03/01 11:23:43;;;;;;;23.60;13.75;;;;;;;13.68;100.00;99562.47;5088745;28;20481;-48
2024/03/01 11:26:17;;;;;;;24.65;12.63;;;;;;;13.78;100.00;99565.22;5090729;28;20072;-47
2024/03/01 11:28:49;;;;;;;24.65;13.35;;;;;;;13.66;100.00;99559.06;5090418;28;20044;-46